logo
Search for airport 
image banner adimage banner adimage banner ad
image banner ad

FASWAR - Swartspruit

Located in , South Africa

ICAO - , IATA -

Data provided by Airmate  

General information

Coordinates: S25°42'44" E27°59'46"
Elevation is 2706 feet MSL.
 
View others Airports in Limpopo

Operational data

Special qualification required
Current time UTC:
Current local time:
Weather at : FALA - Lanseria International ( 26 km )
METAR: FALA 180900Z VRB04KT 9999 FEW035 21/10 Q1029 NOSIG
TAF: TAF FALA 180400Z 1806/1906 VRB03KT CAVOK TX23/1812Z TN12/1904Z
View NOTAMs / SUP AIP / TFR affecting this airport [VIEW]
Communications frequencies: [VIEW]

Runways:

RWY identifierQFULength (ft)Width (ft)SurfaceLDA (ft)
05166°360966SAND
23346°360966SAND
12100°196966GRASS
30280°196966GRASS

Airport contact information

Address: South Africa

Satellite view of FASWAR